sensor_id;sensor_type;location;lat;lon;timestamp;temperature;humidity
14317;DHT22;7242;50.858;6.586;2024-03-07T00:05:38;8.20;99.90
14317;DHT22;7242;50.858;6.586;2024-03-07T00:08:40;8.10;99.90
14317;DHT22;7242;50.858;6.586;2024-03-07T00:14:42;8.00;99.90
14317;DHT22;7242;50.858;6.586;2024-03-07T00:20:44;7.90;99.90
14317;DHT22;7242;50.858;6.586;2024-03-07T00:32:58;7.70;99.90
14317;DHT22;7242;50.858;6.586;2024-03-07T00:35:59;7.70;99.90
14317;DHT22;7242;50.858;6.586;2024-03-07T00:39:00;7.70;99.90
14317;DHT22;7242;50.858;6.586;2024-03-07T00:42:01;7.60;99.90
14317;DHT22;7242;50.858;6.586;2024-03-07T00:45:03;7.60;99.90
14317;DHT22;7242;50.858;6.586;2024-03-07T00:48:04;7.60;99.90
14317;DHT22;7242;50.858;6.586;2024-03-07T00:54:09;7.60;99.90
14317;DHT22;7242;50.858;6.586;2024-03-07T00:57:13;7.50;99.90
14317;DHT22;7242;50.858;6.586;2024-03-07T01:00:15;7.50;99.90
14317;DHT22;7242;50.858;6.586;2024-03-07T01:03:18;7.50;99.90
14317;DHT22;7242;50.858;6.586;2024-03-07T01:15:32;7.30;99.90
14317;DHT22;7242;50.858;6.586;2024-03-07T01:21:34;7.30;99.90
14317;DHT22;7242;50.858;6.586;2024-03-07T01:30:38;7.20;99.90
14317;DHT22;7242;50.858;6.586;2024-03-07T01:36:40;7.20;99.90
14317;DHT22;7242;50.858;6.586;2024-03-07T01:42:42;7.10;99.90
14317;DHT22;7242;50.858;6.586;2024-03-07T01:57:48;7.00;99.90
14317;DHT22;7242;50.858;6.586;2024-03-07T02:00:50;6.90;99.90
14317;DHT22;7242;50.858;6.586;2024-03-07T02:10:03;6.80;99.90
14317;DHT22;7242;50.858;6.586;2024-03-07T02:13:04;6.80;99.90
14317;DHT22;7242;50.858;6.586;2024-03-07T02:16:05;6.70;99.90
14317;DHT22;7242;50.858;6.586;2024-03-07T02:19:14;6.70;99.90
14317;DHT22;7242;50.858;6.586;2024-03-07T02:22:15;6.60;99.90
14317;DHT22;7242;50.858;6.586;2024-03-07T02:25:17;6.60;99.90
14317;DHT22;7242;50.858;6.586;2024-03-07T02:28:17;6.60;99.90
14317;DHT22;7242;50.858;6.586;2024-03-07T02:37:22;6.50;99.90
14317;DHT22;7242;50.858;6.586;2024-03-07T02:52:28;6.40;99.90
14317;DHT22;7242;50.858;6.586;2024-03-07T02:58:30;6.40;99.90
14317;DHT22;7242;50.858;6.586;2024-03-07T03:01:31;6.40;99.90
14317;DHT22;7242;50.858;6.586;2024-03-07T03:04:32;6.40;99.90
14317;DHT22;7242;50.858;6.586;2024-03-07T03:13:40;6.30;99.90
14317;DHT22;7242;50.858;6.586;2024-03-07T03:16:42;6.30;99.90
14317;DHT22;7242;50.858;6.586;2024-03-07T03:19:44;6.20;99.90
14317;DHT22;7242;50.858;6.586;2024-03-07T03:25:46;6.10;99.90
14317;DHT22;7242;50.858;6.586;2024-03-07T03:28:48;6.00;99.90
14317;DHT22;7242;50.858;6.586;2024-03-07T03:40:54;5.70;99.90
14317;DHT22;7242;50.858;6.586;2024-03-07T03:43:56;5.70;99.90
14317;DHT22;7242;50.858;6.586;2024-03-07T03:49:58;5.60;99.90
14317;DHT22;7242;50.858;6.586;2024-03-07T04:05:12;5.40;99.90
14317;DHT22;7242;50.858;6.586;2024-03-07T04:11:15;5.30;99.90
14317;DHT22;7242;50.858;6.586;2024-03-07T04:29:22;5.30;99.90
14317;DHT22;7242;50.858;6.586;2024-03-07T04:35:24;5.20;99.90
14317;DHT22;7242;50.858;6.586;2024-03-07T04:41:28;5.20;99.90
14317;DHT22;7242;50.858;6.586;2024-03-07T04:44:30;5.10;99.90
14317;DHT22;7242;50.858;6.586;2024-03-07T04:50:33;4.90;99.90
14317;DHT22;7242;50.858;6.586;2024-03-07T05:02:44;4.60;99.90
14317;DHT22;7242;50.858;6.586;2024-03-07T05:05:45;4.60;99.90
14317;DHT22;7242;50.858;6.586;2024-03-07T05:11:47;4.50;99.90
14317;DHT22;7242;50.858;6.586;2024-03-07T05:14:48;4.50;99.90
14317;DHT22;7242;50.858;6.586;2024-03-07T05:23:53;4.70;99.90
14317;DHT22;7242;50.858;6.586;2024-03-07T05:26:53;4.80;99.90
14317;DHT22;7242;50.858;6.586;2024-03-07T05:29:54;4.90;99.90
14317;DHT22;7242;50.858;6.586;2024-03-07T05:39:16;4.80;99.90
14317;DHT22;7242;50.858;6.586;2024-03-07T05:42:18;4.80;99.90
14317;DHT22;7242;50.858;6.586;2024-03-07T05:45:18;4.80;99.90
14317;DHT22;7242;50.858;6.586;2024-03-07T05:48:19;4.70;99.90
14317;DHT22;7242;50.858;6.586;2024-03-07T05:54:21;4.70;99.90
14317;DHT22;7242;50.858;6.586;2024-03-07T06:00:23;4.70;99.90
14317;DHT22;7242;50.858;6.586;2024-03-07T06:03:27;4.50;99.90
14317;DHT22;7242;50.858;6.586;2024-03-07T06:06:29;4.60;99.90
14317;DHT22;7242;50.858;6.586;2024-03-07T06:12:33;4.60;99.90
14317;DHT22;7242;50.858;6.586;2024-03-07T06:15:34;4.70;99.90
14317;DHT22;7242;50.858;6.586;2024-03-07T06:21:37;4.80;99.90
14317;DHT22;7242;50.858;6.586;2024-03-07T06:24:40;4.70;99.90
14317;DHT22;7242;50.858;6.586;2024-03-07T06:27:42;4.80;99.90
14317;DHT22;7242;50.858;6.586;2024-03-07T06:51:58;5.50;99.90
14317;DHT22;7242;50.858;6.586;2024-03-07T06:58:00;5.50;99.90
14317;DHT22;7242;50.858;6.586;2024-03-07T07:10:14;6.60;99.90
14317;DHT22;7242;50.858;6.586;2024-03-07T07:13:18;7.10;99.90
14317;DHT22;7242;50.858;6.586;2024-03-07T07:28:24;9.50;99.90
14317;DHT22;7242;50.858;6.586;2024-03-07T07:31:25;10.10;99.90
14317;DHT22;7242;50.858;6.586;2024-03-07T07:34:26;10.60;99.90
14317;DHT22;7242;50.858;6.586;2024-03-07T07:43:32;12.40;99.90
14317;DHT22;7242;50.858;6.586;2024-03-07T07:49:34;13.10;99.90
14317;DHT22;7242;50.858;6.586;2024-03-07T07:52:36;13.20;99.90
14317;DHT22;7242;50.858;6.586;2024-03-07T08:04:42;14.10;99.90
14317;DHT22;7242;50.858;6.586;2024-03-07T08:07:43;14.40;99.90
14317;DHT22;7242;50.858;6.586;2024-03-07T08:10:43;14.40;99.90
14317;DHT22;7242;50.858;6.586;2024-03-07T08:13:46;13.70;99.90
14317;DHT22;7242;50.858;6.586;2024-03-07T08:16:50;13.00;99.90
14317;DHT22;7242;50.858;6.586;2024-03-07T08:22:54;11.60;99.90
14317;DHT22;7242;50.858;6.586;2024-03-07T08:31:58;9.80;99.90
14317;DHT22;7242;50.858;6.586;2024-03-07T08:34:58;9.30;99.90
14317;DHT22;7242;50.858;6.586;2024-03-07T08:38:00;9.00;99.90
14317;DHT22;7242;50.858;6.586;2024-03-07T08:47:03;8.30;99.90
14317;DHT22;7242;50.858;6.586;2024-03-07T08:50:05;8.20;99.90
14317;DHT22;7242;50.858;6.586;2024-03-07T09:17:25;8.70;99.90
14317;DHT22;7242;50.858;6.586;2024-03-07T09:26:28;8.80;99.90
14317;DHT22;7242;50.858;6.586;2024-03-07T09:38:34;8.90;99.90
14317;DHT22;7242;50.858;6.586;2024-03-07T09:44:38;8.80;99.90
14317;DHT22;7242;50.858;6.586;2024-03-07T09:47:41;8.60;99.90
14317;DHT22;7242;50.858;6.586;2024-03-07T09:50:44;8.90;99.90
14317;DHT22;7242;50.858;6.586;2024-03-07T09:53:49;9.00;99.90
14317;DHT22;7242;50.858;6.586;2024-03-07T09:56:53;9.00;99.90
14317;DHT22;7242;50.858;6.586;2024-03-07T09:59:54;8.80;99.90
14317;DHT22;7242;50.858;6.586;2024-03-07T10:03:01;8.80;99.90
14317;DHT22;7242;50.858;6.586;2024-03-07T10:06:03;8.90;99.90
14317;DHT22;7242;50.858;6.586;2024-03-07T10:09:06;8.90;99.90
14317;DHT22;7242;50.858;6.586;2024-03-07T10:12:08;9.10;99.90
14317;DHT22;7242;50.858;6.586;2024-03-07T10:18:17;9.10;99.90
14317;DHT22;7242;50.858;6.586;2024-03-07T10:21:22;9.20;99.90
14317;DHT22;7242;50.858;6.586;2024-03-07T10:24:25;9.30;99.90
14317;DHT22;7242;50.858;6.586;2024-03-07T10:27:27;9.00;99.90
14317;DHT22;7242;50.858;6.586;2024-03-07T10:42:37;9.00;99.90
14317;DHT22;7242;50.858;6.586;2024-03-07T10:45:44;9.00;99.90
14317;DHT22;7242;50.858;6.586;2024-03-07T10:48:54;8.80;99.90
14317;DHT22;7242;50.858;6.586;2024-03-07T10:52:13;9.20;99.90
14317;DHT22;7242;50.858;6.586;2024-03-07T10:58:58;9.40;99.90
14317;DHT22;7242;50.858;6.586;2024-03-07T11:05:28;9.20;99.90
14317;DHT22;7242;50.858;6.586;2024-03-07T11:08:34;9.20;99.90
14317;DHT22;7242;50.858;6.586;2024-03-07T11:17:38;9.40;99.90
14317;DHT22;7242;50.858;6.586;2024-03-07T11:20:40;9.40;99.90
14317;DHT22;7242;50.858;6.586;2024-03-07T11:23:44;9.30;99.90
14317;DHT22;7242;50.858;6.586;2024-03-07T11:26:47;9.30;99.90
14317;DHT22;7242;50.858;6.586;2024-03-07T11:29:49;9.50;99.90
14317;DHT22;7242;50.858;6.586;2024-03-07T11:32:54;9.50;99.90
14317;DHT22;7242;50.858;6.586;2024-03-07T11:38:58;9.60;99.90
14317;DHT22;7242;50.858;6.586;2024-03-07T11:45:04;9.50;99.90
14317;DHT22;7242;50.858;6.586;2024-03-07T11:48:06;9.60;99.90
14317;DHT22;7242;50.858;6.586;2024-03-07T11:51:13;9.60;99.90
14317;DHT22;7242;50.858;6.586;2024-03-07T12:00:34;9.70;99.90
14317;DHT22;7242;50.858;6.586;2024-03-07T12:03:35;9.80;99.90
14317;DHT22;7242;50.858;6.586;2024-03-07T12:15:43;9.50;99.90
14317;DHT22;7242;50.858;6.586;2024-03-07T12:21:46;9.50;99.90
14317;DHT22;7242;50.858;6.586;2024-03-07T12:25:03;9.60;99.90
14317;DHT22;7242;50.858;6.586;2024-03-07T12:28:09;9.70;99.90
14317;DHT22;7242;50.858;6.586;2024-03-07T12:34:19;9.90;99.90
14317;DHT22;7242;50.858;6.586;2024-03-07T12:37:20;10.10;99.90
14317;DHT22;7242;50.858;6.586;2024-03-07T12:43:34;10.30;99.90
14317;DHT22;7242;50.858;6.586;2024-03-07T12:58:43;10.60;99.90
14317;DHT22;7242;50.858;6.586;2024-03-07T13:04:48;10.60;99.90
14317;DHT22;7242;50.858;6.586;2024-03-07T13:29:11;10.40;99.90
14317;DHT22;7242;50.858;6.586;2024-03-07T13:32:13;10.40;99.90
14317;DHT22;7242;50.858;6.586;2024-03-07T13:35:16;10.30;99.90
14317;DHT22;7242;50.858;6.586;2024-03-07T13:41:20;10.40;99.90
14317;DHT22;7242;50.858;6.586;2024-03-07T13:47:23;10.50;99.90
14317;DHT22;7242;50.858;6.586;2024-03-07T13:50:26;10.60;99.90
14317;DHT22;7242;50.858;6.586;2024-03-07T13:56:42;10.60;99.90
14317;DHT22;7242;50.858;6.586;2024-03-07T14:06:38;10.50;99.90
14317;DHT22;7242;50.858;6.586;2024-03-07T14:32:56;10.40;99.90
14317;DHT22;7242;50.858;6.586;2024-03-07T14:36:13;10.40;99.90
14317;DHT22;7242;50.858;6.586;2024-03-07T14:39:17;10.30;99.90
14317;DHT22;7242;50.858;6.586;2024-03-07T14:45:34;10.30;99.90
14317;DHT22;7242;50.858;6.586;2024-03-07T14:48:36;10.30;99.90
14317;DHT22;7242;50.858;6.586;2024-03-07T14:57:43;10.10;99.90
14317;DHT22;7242;50.858;6.586;2024-03-07T15:16:00;10.20;99.90
14317;DHT22;7242;50.858;6.586;2024-03-07T15:22:02;10.20;99.90
14317;DHT22;7242;50.858;6.586;2024-03-07T15:25:03;10.20;99.90
14317;DHT22;7242;50.858;6.586;2024-03-07T15:31:09;10.10;99.90
14317;DHT22;7242;50.858;6.586;2024-03-07T15:40:17;9.80;99.90
14317;DHT22;7242;50.858;6.586;2024-03-07T15:43:18;9.90;99.90
14317;DHT22;7242;50.858;6.586;2024-03-07T15:46:19;9.80;99.90
14317;DHT22;7242;50.858;6.586;2024-03-07T15:52:21;9.80;99.90
14317;DHT22;7242;50.858;6.586;2024-03-07T15:55:22;9.70;99.90
14317;DHT22;7242;50.858;6.586;2024-03-07T15:58:28;9.80;99.90
14317;DHT22;7242;50.858;6.586;2024-03-07T16:10:38;9.60;99.90
14317;DHT22;7242;50.858;6.586;2024-03-07T16:13:42;9.50;99.90
14317;DHT22;7242;50.858;6.586;2024-03-07T16:28:52;9.40;99.90
14317;DHT22;7242;50.858;6.586;2024-03-07T16:31:53;9.30;99.90
14317;DHT22;7242;50.858;6.586;2024-03-07T16:40:57;9.30;99.90
14317;DHT22;7242;50.858;6.586;2024-03-07T16:50:05;9.30;99.90
14317;DHT22;7242;50.858;6.586;2024-03-07T16:53:08;9.30;99.90
14317;DHT22;7242;50.858;6.586;2024-03-07T16:59:12;9.20;99.90
14317;DHT22;7242;50.858;6.586;2024-03-07T17:05:14;9.20;99.90
14317;DHT22;7242;50.858;6.586;2024-03-07T17:32:34;9.00;99.90
14317;DHT22;7242;50.858;6.586;2024-03-07T17:38:40;9.00;99.90
14317;DHT22;7242;50.858;6.586;2024-03-07T17:44:42;9.00;99.90
14317;DHT22;7242;50.858;6.586;2024-03-07T18:02:53;8.80;99.90
14317;DHT22;7242;50.858;6.586;2024-03-07T18:24:15;8.90;99.90
14317;DHT22;7242;50.858;6.586;2024-03-07T18:39:23;8.80;99.90
14317;DHT22;7242;50.858;6.586;2024-03-07T18:42:26;8.80;99.90
14317;DHT22;7242;50.858;6.586;2024-03-07T18:57:34;8.80;99.90
14317;DHT22;7242;50.858;6.586;2024-03-07T19:09:41;8.60;99.90
14317;DHT22;7242;50.858;6.586;2024-03-07T19:21:46;8.60;99.90
14317;DHT22;7242;50.858;6.586;2024-03-07T19:24:47;8.60;99.90
14317;DHT22;7242;50.858;6.586;2024-03-07T19:27:50;8.60;99.90
14317;DHT22;7242;50.858;6.586;2024-03-07T19:33:52;8.60;99.90
14317;DHT22;7242;50.858;6.586;2024-03-07T19:39:54;8.40;99.90
14317;DHT22;7242;50.858;6.586;2024-03-07T19:55:08;8.40;99.90
14317;DHT22;7242;50.858;6.586;2024-03-07T20:07:17;8.40;99.90
14317;DHT22;7242;50.858;6.586;2024-03-07T20:10:18;8.30;99.90
14317;DHT22;7242;50.858;6.586;2024-03-07T20:40:36;7.80;99.90
14317;DHT22;7242;50.858;6.586;2024-03-07T20:46:39;7.70;99.90
14317;DHT22;7242;50.858;6.586;2024-03-07T20:52:44;7.60;99.90
14317;DHT22;7242;50.858;6.586;2024-03-07T20:58:47;7.40;99.90
14317;DHT22;7242;50.858;6.586;2024-03-07T21:01:48;7.30;99.90
14317;DHT22;7242;50.858;6.586;2024-03-07T21:07:52;7.10;99.90
14317;DHT22;7242;50.858;6.586;2024-03-07T21:16:59;6.70;99.90
14317;DHT22;7242;50.858;6.586;2024-03-07T21:26:05;6.60;99.90
14317;DHT22;7242;50.858;6.586;2024-03-07T21:29:05;6.50;99.90
14317;DHT22;7242;50.858;6.586;2024-03-07T21:41:15;6.30;99.90
14317;DHT22;7242;50.858;6.586;2024-03-07T21:47:17;6.20;99.90
14317;DHT22;7242;50.858;6.586;2024-03-07T21:56:29;6.00;99.90
14317;DHT22;7242;50.858;6.586;2024-03-07T21:59:31;5.90;99.90
14317;DHT22;7242;50.858;6.586;2024-03-07T22:02:34;5.90;99.90
14317;DHT22;7242;50.858;6.586;2024-03-07T22:08:36;5.80;99.90
14317;DHT22;7242;50.858;6.586;2024-03-07T22:14:38;5.80;99.90
14317;DHT22;7242;50.858;6.586;2024-03-07T22:17:40;5.70;99.90
14317;DHT22;7242;50.858;6.586;2024-03-07T22:29:46;5.40;99.90
14317;DHT22;7242;50.858;6.586;2024-03-07T22:32:47;5.40;99.90
14317;DHT22;7242;50.858;6.586;2024-03-07T22:44:54;5.20;99.90
14317;DHT22;7242;50.858;6.586;2024-03-07T22:56:59;5.10;99.90
14317;DHT22;7242;50.858;6.586;2024-03-07T23:00:02;5.10;99.90
14317;DHT22;7242;50.858;6.586;2024-03-07T23:03:04;5.00;99.90
14317;DHT22;7242;50.858;6.586;2024-03-07T23:12:09;5.00;99.90
14317;DHT22;7242;50.858;6.586;2024-03-07T23:15:10;5.00;99.90
14317;DHT22;7242;50.858;6.586;2024-03-07T23:24:14;4.80;99.90
14317;DHT22;7242;50.858;6.586;2024-03-07T23:33:18;4.70;99.90
14317;DHT22;7242;50.858;6.586;2024-03-07T23:39:20;4.60;99.90
14317;DHT22;7242;50.858;6.586;2024-03-07T23:54:30;4.60;99.90
